CPA872 VHHH-KSFO
Flight info
| Callsign | CPA872 |
|---|---|
| Flight time | N/A |
| Altitude | 31100 |
| Route | ADLAD DCT BEKOL DCT VIPAP R200 SUMDO/N0509F310 DCT TUBBY DCT ELATO A1 KADLO L1 SALMI/N0498F330 B576 SOSDO DCT GUKSU DCT PAPLU Y571 PSN A586 TENAS Y437 KANSU/K0906F330 L822 TONIN B467 NULAR/K0867F250 B233 BULOD/K0898F330 R810 BAGOM G227 ROMUK/K0919F350 R968 NAMUL T564 GITRU B327 IRKAN G583 BESAT/N0483F350 G583 MARCC DCT KIVAK B932 LESAD DCT JOTPU/N0412F170 V319 BET/N0493F350 J123 KOWOK/N0495F370 J123 AKN/N0413F170 V322 WORRI T368 OSBOE/N0496F370 DCT JUTGO DCT CJAYY B757 KATCH B453 KANUA/N0478F390 B453 KYLLE DCT HEMLO C1416 FOT/N0422F170 V494 JENNI DCT OSUDE DCT AMAKR DCT QUINN BDEGA4 |
| Aircraft | B77W/H-SDE1E2E3FGHIJ2J3J4J5M1RWXY/LB1D1 |
Departure
| Time | 2026-05-05 06:14 |
|---|---|
| Airport | Hong Kong International Airport (VHHH) |
Arrival
| Time | N/A |
|---|---|
| Airport | San Francisco International Airport (KSFO) |
| Time | Latitude | Longitude | Altitude | Speed | Heading |
|---|---|---|---|---|---|
| 2026-05-05 05:44 | 22.31402 | 113.92709 | 42 ft | 0 kts | 206° |
| 2026-05-05 05:58 | 22.31409 | 113.92713 | 42 ft | 2 kts | 201° |
| 2026-05-05 05:59 | 22.31423 | 113.92718 | 42 ft | 2 kts | 199° |
| 2026-05-05 05:59 | 22.31438 | 113.92724 | 42 ft | 2 kts | 200° |
| 2026-05-05 05:59 | 22.31452 | 113.92730 | 42 ft | 2 kts | 201° |
| 2026-05-05 05:59 | 22.31466 | 113.92735 | 42 ft | 2 kts | 200° |
| 2026-05-05 06:00 | 22.31480 | 113.92742 | 42 ft | 2 kts | 220° |
| 2026-05-05 06:00 | 22.31488 | 113.92754 | 42 ft | 2 kts | 253° |
| 2026-05-05 06:00 | 22.31490 | 113.92770 | 42 ft | 2 kts | 281° |
| 2026-05-05 06:00 | 22.31488 | 113.92778 | 42 ft | 1 kts | 292° |
| 2026-05-05 06:01 | 22.31487 | 113.92781 | 42 ft | 0 kts | 292° |
| 2026-05-05 06:03 | 22.31491 | 113.92768 | 42 ft | 4 kts | 292° |
| 2026-05-05 06:04 | 22.31511 | 113.92716 | 42 ft | 7 kts | 293° |
| 2026-05-05 06:04 | 22.31532 | 113.92669 | 42 ft | 6 kts | 295° |
| 2026-05-05 06:04 | 22.31549 | 113.92630 | 42 ft | 4 kts | 296° |
| 2026-05-05 06:04 | 22.31568 | 113.92588 | 42 ft | 8 kts | 297° |
| 2026-05-05 06:05 | 22.31600 | 113.92520 | 42 ft | 12 kts | 297° |
| 2026-05-05 06:05 | 22.31640 | 113.92427 | 42 ft | 15 kts | 288° |
| 2026-05-05 06:05 | 22.31624 | 113.92306 | 42 ft | 18 kts | 251° |
| 2026-05-05 06:05 | 22.31580 | 113.92170 | 42 ft | 20 kts | 251° |
| 2026-05-05 06:06 | 22.31534 | 113.92029 | 42 ft | 18 kts | 251° |
| 2026-05-05 06:06 | 22.31495 | 113.91907 | 42 ft | 15 kts | 251° |
| 2026-05-05 06:06 | 22.31459 | 113.91794 | 42 ft | 16 kts | 251° |
| 2026-05-05 06:06 | 22.31418 | 113.91664 | 42 ft | 19 kts | 251° |
| 2026-05-05 06:07 | 22.31370 | 113.91521 | 42 ft | 21 kts | 251° |
| 2026-05-05 06:07 | 22.31320 | 113.91362 | 42 ft | 23 kts | 251° |
| 2026-05-05 06:07 | 22.31265 | 113.91192 | 42 ft | 24 kts | 250° |
| 2026-05-05 06:07 | 22.31210 | 113.91026 | 42 ft | 21 kts | 250° |
| 2026-05-05 06:08 | 22.31165 | 113.90881 | 42 ft | 18 kts | 251° |
| 2026-05-05 06:08 | 22.31125 | 113.90758 | 42 ft | 16 kts | 250° |
| 2026-05-05 06:08 | 22.31085 | 113.90637 | 42 ft | 18 kts | 251° |
| 2026-05-05 06:08 | 22.31039 | 113.90494 | 42 ft | 21 kts | 251° |
| 2026-05-05 06:09 | 22.30988 | 113.90337 | 42 ft | 23 kts | 251° |
| 2026-05-05 06:09 | 22.30939 | 113.90185 | 42 ft | 16 kts | 252° |
| 2026-05-05 06:09 | 22.30904 | 113.90070 | 42 ft | 17 kts | 252° |
| 2026-05-05 06:09 | 22.30867 | 113.89947 | 42 ft | 16 kts | 252° |
| 2026-05-05 06:10 | 22.30834 | 113.89840 | 42 ft | 13 kts | 259° |
| 2026-05-05 06:10 | 22.30845 | 113.89739 | 41 ft | 13 kts | 284° |
| 2026-05-05 06:10 | 22.30851 | 113.89633 | 41 ft | 13 kts | 266° |
| 2026-05-05 06:10 | 22.30843 | 113.89539 | 42 ft | 12 kts | 263° |
| 2026-05-05 06:11 | 22.30840 | 113.89442 | 42 ft | 12 kts | 287° |
| 2026-05-05 06:11 | 22.30898 | 113.89392 | 42 ft | 10 kts | 346° |
| 2026-05-05 06:11 | 22.30951 | 113.89387 | 41 ft | 5 kts | 31° |
| 2026-05-05 06:11 | 22.30967 | 113.89411 | 42 ft | 0 kts | 65° |
| 2026-05-05 06:13 | 22.30974 | 113.89428 | 41 ft | 13 kts | 65° |
| 2026-05-05 06:13 | 22.31086 | 113.89764 | 42 ft | 80 kts | 71° |
| 2026-05-05 06:13 | 22.31340 | 113.90558 | 42 ft | 142 kts | 71° |
| 2026-05-05 06:13 | 22.31601 | 113.91390 | 44 ft | 180 kts | 71° |
| 2026-05-05 06:14 | 22.31784 | 113.91975 | 72 ft | 198 kts | 71° |
| 2026-05-05 06:14 | 22.32025 | 113.92709 | 263 ft | 209 kts | 70° |
| 2026-05-05 06:14 | 22.32516 | 113.94182 | 1116 ft | 202 kts | 72° |
| 2026-05-05 06:14 | 22.32951 | 113.95557 | 1771 ft | 199 kts | 72° |
| 2026-05-05 06:15 | 22.33476 | 113.96979 | 2197 ft | 209 kts | 60° |
| 2026-05-05 06:15 | 22.34288 | 113.98309 | 2662 ft | 217 kts | 57° |
| 2026-05-05 06:15 | 22.35158 | 113.99680 | 3139 ft | 224 kts | 57° |
| 2026-05-05 06:15 | 22.36042 | 114.01081 | 3669 ft | 227 kts | 57° |